Time;durP1;ratioP1;P1;durP2;ratioP2;P2;SDS_P1;SDS_P2;PMS_P1;PMS_P2;Temp;Humidity;BMP_temperature;BMP_pressure;BME280_temperature;BME280_humidity;BME280_pressure;Samples;Min_cycle;Max_cycle;Signal;HPM_P1;HPM_P2
2022/05/03 00:00:52;;;;;;;7.30;5.87;;;;;;;6.75;100.00;101839.81;5294467;27;20028;-75
2022/05/03 00:03:28;;;;;;;8.88;5.32;;;;;;;6.68;100.00;101839.34;5282223;28;20631;-76
2022/05/03 00:06:23;;;;;;;7.85;5.60;;;;;;;6.67;100.00;101840.28;5289025;28;20040;-75
2022/05/03 00:09:06;;;;;;;6.05;5.25;;;;;;;6.59;100.00;101837.25;5287321;28;20029;-75
2022/05/03 00:11:43;;;;;;;8.07;5.82;;;;;;;6.63;100.00;101838.78;5290293;28;20378;-75
2022/05/03 00:14:25;;;;;;;;;;;;;;;6.48;100.00;101834.38;5303426;27;20363;-75
2022/05/03 00:16:58;;;;;;;9.55;6.13;;;;;;;6.50;100.00;101835.16;5291554;28;19912;-75
2022/05/03 00:19:29;;;;;;;6.32;5.55;;;;;;;6.42;100.00;101833.81;5294374;27;20663;-76
2022/05/03 00:22:02;;;;;;;6.13;5.38;;;;;;;6.40;100.00;101832.22;5295612;28;20104;-75
2022/05/03 00:24:33;;;;;;;5.97;5.43;;;;;;;6.39;100.00;101826.03;5298567;28;20036;-74
2022/05/03 00:27:04;;;;;;;10.13;5.90;;;;;;;6.43;100.00;101829.34;5293993;28;20036;-75
2022/05/03 00:29:36;;;;;;;7.10;6.05;;;;;;;6.21;100.00;101830.63;5293429;28;20410;-75
2022/05/03 00:32:08;;;;;;;11.13;6.30;;;;;;;6.27;100.00;101823.28;5294821;27;20371;-75
2022/05/03 00:34:39;;;;;;;6.82;5.82;;;;;;;6.25;100.00;101818.06;5292232;28;20033;-75
2022/05/03 00:37:10;;;;;;;8.35;5.57;;;;;;;6.20;100.00;101822.78;5292866;28;20036;-75
2022/05/03 00:39:42;;;;;;;6.97;5.90;;;;;;;6.19;100.00;101826.38;5293690;28;20028;-75
2022/05/03 00:42:22;;;;;;;9.05;6.65;;;;;;;6.03;100.00;101827.25;5290921;28;20051;-76
2022/05/03 00:45:14;;;;;;;6.57;5.88;;;;;;;5.97;100.00;101821.47;5291185;27;20405;-75
2022/05/03 00:47:53;;;;;;;7.32;6.57;;;;;;;5.90;100.00;101822.72;5294109;28;20029;-75
2022/05/03 00:50:34;;;;;;;6.80;6.15;;;;;;;5.86;100.00;101822.06;5291662;28;20033;-75
2022/05/03 00:53:16;;;;;;;7.05;6.30;;;;;;;5.88;100.00;101828.09;5287845;28;20039;-75
2022/05/03 00:56:09;;;;;;;8.20;5.95;;;;;;;5.75;100.00;101827.97;5290557;28;20390;-75
2022/05/03 00:58:49;;;;;;;7.82;6.28;;;;;;;5.75;100.00;101822.66;5289203;27;20055;-75
2022/05/03 01:01:31;;;;;;;5.65;5.07;;;;;;;5.65;100.00;101832.06;5293174;28;20078;-75
2022/05/03 01:04:24;;;;;;;9.00;6.72;;;;;;;5.57;100.00;101824.53;5288874;28;20033;-75
2022/05/03 01:07:13;;;;;;;7.22;6.53;;;;;;;5.49;100.00;101821.50;5291235;28;20498;-76
2022/05/03 01:10:02;;;;;;;7.40;6.35;;;;;;;5.47;100.00;101823.38;5292369;28;20496;-76
2022/05/03 01:12:52;;;;;;;8.93;6.35;;;;;;;5.42;100.00;101830.72;5293886;28;20386;-76
2022/05/03 01:15:31;;;;;;;7.40;5.35;;;;;;;5.46;100.00;101819.84;5290598;28;36797;-76
2022/05/03 01:18:21;;;;;;;8.57;6.63;;;;;;;5.34;100.00;101828.47;5291939;28;20346;-76
2022/05/03 01:21:11;;;;;;;9.63;7.05;;;;;;;5.39;100.00;101825.59;5291769;28;20056;-76
2022/05/03 01:24:07;;;;;;;10.00;6.65;;;;;;;5.41;100.00;101821.91;5291527;28;20036;-76
2022/05/03 01:27:17;;;;;;;11.02;6.60;;;;;;;5.31;100.00;101818.03;5291594;28;20120;-76
2022/05/03 01:29:50;;;;;;;7.85;6.63;;;;;;;5.11;100.00;101819.16;5293922;28;20029;-76
2022/05/03 01:32:21;;;;;;;8.90;6.70;;;;;;;5.24;100.00;101817.56;5290724;28;20134;-76
2022/05/03 01:34:54;;;;;;;6.10;5.40;;;;;;;5.22;100.00;101816.75;5309003;27;20414;-76
2022/05/03 01:38:10;;;;;;;8.00;7.13;;;;;;;5.17;100.00;101820.59;5304898;28;20334;-76
2022/05/03 01:41:10;;;;;;;9.38;6.85;;;;;;;5.08;100.00;101822.81;5263745;28;20041;-76
2022/05/03 01:44:00;;;;;;;8.93;6.85;;;;;;;5.06;100.00;101823.84;5299547;28;20048;-75
2022/05/03 01:46:35;;;;;;;8.70;6.80;;;;;;;5.14;100.00;101815.47;5301128;28;20033;-76
2022/05/03 01:52:28;;;;;;;9.25;7.00;;;;;;;4.91;100.00;101809.66;5294390;28;20040;-75
2022/05/03 01:55:38;;;;;;;7.28;6.55;;;;;;;4.92;100.00;101812.19;5295710;28;20029;-75
2022/05/03 01:58:28;;;;;;;8.40;7.07;;;;;;;4.78;100.00;101811.22;5299098;27;20043;-75
2022/05/03 02:01:11;;;;;;;9.73;7.05;;;;;;;4.74;100.00;101808.75;5294068;28;20028;-75
2022/05/03 02:03:50;;;;;;;8.68;6.32;;;;;;;4.82;100.00;101807.47;5303031;28;20028;-75
2022/05/03 02:06:55;;;;;;;8.30;6.80;;;;;;;4.67;100.00;101814.44;5314479;28;20054;-75
2022/05/03 02:10:03;;;;;;;12.73;7.03;;;;;;;4.69;100.00;101810.78;5305218;28;20123;-75
2022/05/03 02:12:34;;;;;;;9.40;6.30;;;;;;;4.72;100.00;101804.50;5305968;28;20375;-76
2022/05/03 02:15:08;;;;;;;8.90;5.43;;;;;;;4.83;100.00;101807.41;5308678;27;20036;-75
2022/05/03 02:18:05;;;;;;;9.45;6.78;;;;;;;4.59;100.00;101816.63;5310066;27;20032;-76
2022/05/03 02:20:49;;;;;;;8.25;6.35;;;;;;;4.65;100.00;101806.59;5308224;28;20024;-76
2022/05/03 02:23:28;;;;;;;7.93;6.55;;;;;;;4.39;100.00;101810.59;5304171;27;20260;-76
2022/05/03 02:26:11;;;;;;;7.07;6.38;;;;;;;4.54;100.00;101812.44;5305474;28;20115;-76
2022/05/03 02:28:48;;;;;;;7.07;6.38;;;;;;;4.53;100.00;101808.09;5305483;27;20561;-76
2022/05/03 02:31:30;;;;;;;7.93;6.78;;;;;;;4.58;100.00;101815.78;5307624;28;20036;-76
2022/05/03 02:34:13;;;;;;;9.30;7.00;;;;;;;4.54;100.00;101809.81;5312804;27;20355;-76
2022/05/03 02:36:55;;;;;;;7.95;6.47;;;;;;;4.54;100.00;101814.22;5308432;28;20031;-76
2022/05/03 02:39:30;;;;;;;7.70;6.32;;;;;;;4.50;100.00;101812.66;5306682;28;20075;-76
2022/05/03 02:42:01;;;;;;;8.30;6.15;;;;;;;4.39;100.00;101807.94;5314119;28;20059;-76
2022/05/03 02:44:33;;;;;;;10.27;7.18;;;;;;;4.45;100.00;101807.66;5308141;27;20115;-76
2022/05/03 02:47:09;;;;;;;6.03;5.32;;;;;;;4.50;100.00;101805.59;5312835;27;20020;-76
2022/05/03 02:49:49;;;;;;;7.18;5.68;;;;;;;4.43;100.00;101813.94;5309183;28;20378;-76
2022/05/03 02:52:31;;;;;;;8.05;5.30;;;;;;;4.30;100.00;101814.56;5308437;28;20040;-77
2022/05/03 02:55:17;;;;;;;9.18;7.38;;;;;;;4.29;100.00;101822.56;5305565;27;20118;-77
2022/05/03 02:58:03;;;;;;;8.10;6.82;;;;;;;4.32;100.00;101817.97;5315768;28;20064;-77
2022/05/03 03:04:04;;;;;;;8.57;6.82;;;;;;;4.26;100.00;101820.06;5310987;28;20489;-77
2022/05/03 03:06:42;;;;;;;6.68;6.03;;;;;;;4.20;100.00;101815.09;5314442;28;20576;-77
2022/05/03 03:09:20;;;;;;;9.65;6.88;;;;;;;4.16;100.00;101817.88;5310585;28;20389;-75
2022/05/03 03:11:52;;;;;;;9.88;6.80;;;;;;;4.06;100.00;101814.00;5307621;27;20509;-75
2022/05/03 03:14:42;;;;;;;8.48;6.63;;;;;;;4.06;100.00;101814.00;5313275;27;20024;-75
2022/05/03 03:17:28;;;;;;;7.57;5.53;;;;;;;3.95;100.00;101816.31;5316188;28;20027;-75
2022/05/03 03:20:05;;;;;;;9.15;6.55;;;;;;;3.90;100.00;101810.41;5305161;28;20025;-75
2022/05/03 03:22:41;;;;;;;8.68;6.97;;;;;;;3.97;100.00;101815.31;5316733;27;20036;-75
2022/05/03 03:25:19;;;;;;;7.68;6.53;;;;;;;4.06;100.00;101808.72;5313039;27;20090;-75
2022/05/03 03:27:53;;;;;;;7.72;6.22;;;;;;;4.08;100.00;101821.84;5316139;27;20063;-75
2022/05/03 03:30:24;;;;;;;10.02;7.47;;;;;;;3.95;100.00;101817.16;5308220;28;20012;-75
2022/05/03 03:32:57;;;;;;;11.38;6.57;;;;;;;3.94;100.00;101818.13;5316048;27;20033;-75
2022/05/03 03:35:31;;;;;;;9.48;5.85;;;;;;;4.03;100.00;101819.41;5314069;28;20086;-75
2022/05/03 03:38:04;;;;;;;9.23;5.68;;;;;;;4.11;100.00;101817.25;5311920;28;20680;-75
2022/05/03 03:40:36;;;;;;;9.68;7.13;;;;;;;3.91;100.00;101807.72;5308285;27;20469;-74
2022/05/03 03:43:07;;;;;;;12.10;7.50;;;;;;;3.92;100.00;101813.84;5313328;27;20024;-75
2022/05/03 03:45:40;;;;;;;8.77;7.13;;;;;;;3.87;100.00;101806.13;5314506;27;20024;-75
2022/05/03 03:48:11;;;;;;;9.18;7.72;;;;;;;3.82;100.00;101808.13;5311652;28;20106;-75
2022/05/03 03:50:44;;;;;;;9.13;6.93;;;;;;;3.87;100.00;101807.91;5306799;27;20137;-74
2022/05/03 03:53:16;;;;;;;11.15;7.63;;;;;;;3.66;100.00;101809.81;5311966;27;20107;-75
2022/05/03 03:55:48;;;;;;;7.88;6.10;;;;;;;3.72;100.00;101814.81;5306812;27;20039;-75
2022/05/03 03:58:19;;;;;;;11.18;7.65;;;;;;;3.65;100.00;101808.97;5311121;27;20394;-75
2022/05/03 04:00:51;;;;;;;11.05;6.60;;;;;;;3.90;100.00;101813.91;5305413;27;20037;-75
2022/05/03 04:03:24;;;;;;;9.43;7.07;;;;;;;3.87;100.00;101800.00;5305079;28;20024;-75
2022/05/03 04:05:55;;;;;;;8.38;6.85;;;;;;;3.78;100.00;101806.59;5309134;27;20492;-75
2022/05/03 04:08:27;;;;;;;11.32;7.00;;;;;;;3.84;100.00;101808.94;5310771;27;20028;-75
2022/05/03 04:10:58;;;;;;;8.45;6.55;;;;;;;3.88;100.00;101809.66;5312924;27;20032;-75
2022/05/03 04:13:31;;;;;;;9.77;7.63;;;;;;;3.91;100.00;101807.72;5313882;28;20394;-75
2022/05/03 04:16:05;;;;;;;14.10;8.93;;;;;;;4.02;100.00;101816.88;5312128;28;20070;-74
2022/05/03 04:18:55;;;;;;;9.63;7.50;;;;;;;4.20;100.00;101810.66;5303917;28;20024;-75
2022/05/03 04:21:26;;;;;;;10.70;7.35;;;;;;;4.18;100.00;101816.97;5313860;27;20039;-75
2022/05/03 04:23:58;;;;;;;9.45;8.23;;;;;;;4.34;100.00;101818.75;5311558;27;20047;-75
2022/05/03 04:26:29;;;;;;;14.93;9.80;;;;;;;4.44;100.00;101819.13;5312388;27;20123;-75
2022/05/03 04:29:02;;;;;;;11.88;9.18;;;;;;;4.51;100.00;101827.59;5309874;27;20161;-76
2022/05/03 04:31:35;;;;;;;11.07;8.45;;;;;;;4.57;100.00;101814.06;5308523;28;20044;-76
2022/05/03 04:34:06;;;;;;;11.93;9.27;;;;;;;4.57;100.00;101808.78;5308635;28;20028;-76
2022/05/03 04:36:37;;;;;;;11.88;8.90;;;;;;;4.84;100.00;101811.78;5304628;28;20047;-76
2022/05/03 04:39:09;;;;;;;13.13;9.27;;;;;;;4.83;100.00;101809.19;5300736;28;20021;-76
2022/05/03 04:41:40;;;;;;;11.13;8.63;;;;;;;4.72;100.00;101817.69;5311379;28;20121;-76
2022/05/03 04:44:11;;;;;;;11.52;9.95;;;;;;;4.89;100.00;101827.38;5309641;28;20035;-76
2022/05/03 04:46:43;;;;;;;10.82;7.90;;;;;;;4.85;100.00;101823.19;5300436;28;20029;-76
2022/05/03 04:49:17;;;;;;;14.15;8.25;;;;;;;5.04;100.00;101834.50;5306933;27;40174;-75
2022/05/03 04:51:48;;;;;;;13.82;8.70;;;;;;;5.14;100.00;101836.63;5308061;28;20040;-76
2022/05/03 04:54:19;;;;;;;11.27;9.55;;;;;;;5.17;100.00;101831.19;5313144;27;20039;-75
2022/05/03 04:57:00;;;;;;;12.02;9.50;;;;;;;4.97;100.00;101834.91;5301208;28;20057;-76
2022/05/03 04:59:32;;;;;;;11.88;8.75;;;;;;;4.62;100.00;101837.63;5306939;27;20036;-76
2022/05/03 05:02:04;;;;;;;13.52;9.10;;;;;;;4.75;100.00;101841.31;5292744;28;20428;-75
2022/05/03 05:04:35;;;;;;;13.95;9.65;;;;;;;4.68;100.00;101843.44;5304767;28;20021;-75
2022/05/03 05:07:06;;;;;;;12.88;9.13;;;;;;;4.69;100.00;101846.94;5299180;28;20033;-75
2022/05/03 05:10:23;;;;;;;10.20;8.40;;;;;;;4.74;100.00;101839.63;5304439;28;20031;-75
2022/05/03 05:12:30;;;;;;;11.18;8.68;;;;;;;4.78;100.00;101843.81;5303189;28;20398;-75
2022/05/03 05:15:02;;;;;;;11.30;7.80;;;;;;;5.03;100.00;101851.31;5311243;28;20481;-75
2022/05/03 05:17:33;;;;;;;11.13;8.82;;;;;;;5.07;100.00;101849.34;5302804;27;20031;-77
2022/05/03 05:20:05;;;;;;;11.70;9.35;;;;;;;5.28;100.00;101842.91;5310537;27;20028;-76
2022/05/03 05:22:37;;;;;;;15.90;9.00;;;;;;;5.52;100.00;101845.09;5310430;28;20032;-75
2022/05/03 05:25:09;;;;;;;13.90;8.65;;;;;;;5.77;100.00;101841.97;5311386;27;20485;-75
2022/05/03 05:27:41;;;;;;;10.57;8.15;;;;;;;6.04;100.00;101851.94;5309798;27;20036;-75
2022/05/03 05:30:12;;;;;;;8.95;8.05;;;;;;;6.38;100.00;101849.97;5307941;28;20035;-76
2022/05/03 05:32:44;;;;;;;10.00;8.18;;;;;;;6.41;100.00;101853.28;5292107;28;20088;-75
2022/05/03 05:35:16;;;;;;;10.35;7.90;;;;;;;6.79;100.00;101865.22;5308634;27;20024;-76
2022/05/03 05:37:47;;;;;;;9.82;7.43;;;;;;;7.12;100.00;101864.94;5306421;28;20093;-76
2022/05/03 05:40:18;;;;;;;10.70;6.93;;;;;;;7.42;100.00;101861.31;5300049;27;21212;-75
2022/05/03 05:42:50;;;;;;;9.38;7.65;;;;;;;7.81;100.00;101858.88;5306056;28;20174;-76
2022/05/03 05:45:21;;;;;;;10.00;7.03;;;;;;;8.12;100.00;101853.25;5310577;27;20114;-75
2022/05/03 05:47:52;;;;;;;10.63;6.72;;;;;;;8.19;100.00;101859.00;5310285;27;20075;-75
2022/05/03 05:50:25;;;;;;;9.57;6.07;;;;;;;8.50;100.00;101865.81;5310810;27;20021;-75
2022/05/03 05:55:46;;;;;;;7.50;6.07;;;;;;;8.90;100.00;101854.22;5305705;27;20052;-77
2022/05/03 05:58:18;;;;;;;7.38;6.05;;;;;;;8.85;100.00;101857.22;5319879;28;20027;-77
2022/05/03 06:00:49;;;;;;;8.57;6.13;;;;;;;9.09;100.00;101862.63;5305402;27;20048;-77
2022/05/03 06:03:22;;;;;;;12.02;6.53;;;;;;;9.28;100.00;101853.34;5308932;28;20035;-77
2022/05/03 06:05:53;;;;;;;8.38;5.93;;;;;;;9.20;100.00;101853.03;5301418;28;20035;-76
2022/05/03 06:08:25;;;;;;;12.13;7.18;;;;;;;9.18;100.00;101842.50;5300811;28;20029;-77
2022/05/03 06:10:59;;;;;;;7.97;6.53;;;;;;;9.31;100.00;101862.91;5309807;28;20032;-77
2022/05/03 06:13:31;;;;;;;11.93;6.70;;;;;;;9.57;100.00;101853.06;5311534;28;20024;-77
2022/05/03 06:16:09;;;;;;;9.02;6.05;;;;;;;9.91;100.00;101858.59;5313063;28;20026;-77
2022/05/03 06:18:41;;;;;;;11.45;6.68;;;;;;;10.19;100.00;101865.41;5309266;27;20686;-77
2022/05/03 06:21:12;;;;;;;8.02;5.70;;;;;;;10.46;100.00;101861.63;5310916;28;20032;-77
2022/05/03 06:23:44;;;;;;;8.38;6.15;;;;;;;10.87;100.00;101865.59;5309881;28;20035;-76
2022/05/03 06:26:15;;;;;;;6.00;5.38;;;;;;;11.15;100.00;101867.81;5310542;28;20430;-77
2022/05/03 06:28:47;;;;;;;5.88;5.07;;;;;;;11.48;100.00;101858.09;5305354;28;20719;-77
2022/05/03 06:31:20;;;;;;;5.93;5.25;;;;;;;11.72;100.00;101865.06;5316139;28;20020;-77
2022/05/03 06:33:51;;;;;;;5.55;4.70;;;;;;;12.24;100.00;101868.00;5312436;27;20389;-77
2022/05/03 06:36:22;;;;;;;7.68;5.18;;;;;;;12.87;100.00;101865.31;5307364;27;20037;-77
2022/05/03 06:38:54;;;;;;;7.03;4.55;;;;;;;13.31;100.00;101857.94;5298273;28;20021;-77
2022/05/03 06:41:25;;;;;;;5.95;4.80;;;;;;;14.19;100.00;101858.91;5305570;28;20044;-77
2022/05/03 06:43:58;;;;;;;6.00;4.00;;;;;;;14.73;100.00;101853.94;5303513;28;42726;-76
2022/05/03 06:46:29;;;;;;;11.68;4.70;;;;;;;14.92;100.00;101853.06;5301627;28;20030;-76
2022/05/03 06:49:00;;;;;;;5.07;4.13;;;;;;;15.26;100.00;101859.72;5308611;27;20338;-76
2022/05/03 06:51:32;;;;;;;5.55;3.58;;;;;;;16.13;97.92;101858.34;5306113;28;20037;-77
2022/05/03 06:54:03;;;;;;;10.18;4.10;;;;;;;15.86;94.03;101867.31;5303387;28;20024;-77
2022/05/03 06:56:37;;;;;;;11.27;4.97;;;;;;;16.15;90.37;101864.41;5308383;28;20029;-77
2022/05/03 06:59:09;;;;;;;4.57;3.60;;;;;;;16.44;85.86;101861.47;5303364;28;20427;-77
2022/05/03 07:01:40;;;;;;;4.93;3.72;;;;;;;17.13;75.63;101863.47;5302287;28;20082;-77
2022/05/03 07:04:12;;;;;;;3.28;2.97;;;;;;;17.82;67.52;101868.75;5304852;28;20315;-76
2022/05/03 07:06:43;;;;;;;4.45;3.10;;;;;;;17.74;55.09;101869.56;5306010;28;20043;-76
2022/05/03 07:09:14;;;;;;;3.33;2.80;;;;;;;18.22;52.70;101868.00;5305742;28;20021;-76
2022/05/03 07:11:45;;;;;;;4.70;2.95;;;;;;;18.66;47.01;101881.16;5296994;28;20047;-76
2022/05/03 07:14:18;;;;;;;5.88;2.92;;;;;;;19.21;44.31;101874.09;5305637;28;20382;-76
2022/05/03 07:16:49;;;;;;;4.15;2.70;;;;;;;19.79;43.10;101863.03;5304612;28;20036;-76
2022/05/03 07:25:00;;;;;;;3.58;2.60;;;;;;;20.92;37.55;101870.44;5296980;28;20016;-77
2022/05/03 07:27:31;;;;;;;2.97;2.30;;;;;;;21.48;37.37;101874.56;5303376;28;20052;-77
2022/05/03 07:30:03;;;;;;;3.72;2.17;;;;;;;21.84;35.46;101869.09;5305095;28;20031;-77
2022/05/03 07:32:34;;;;;;;7.20;2.50;;;;;;;22.08;34.83;101884.19;5300128;28;20087;-77
2022/05/03 07:35:06;;;;;;;4.00;2.38;;;;;;;22.81;32.38;101881.31;5304711;28;20135;-77
2022/05/03 07:37:39;;;;;;;2.55;1.92;;;;;;;22.12;31.75;101886.53;5306791;28;20473;-76
2022/05/03 07:40:11;;;;;;;1.85;1.73;;;;;;;23.36;30.70;101886.03;5317240;27;20108;-76
2022/05/03 07:42:42;;;;;;;3.33;2.28;;;;;;;23.01;30.12;101881.41;5303579;28;20028;-76
2022/05/03 07:45:15;;;;;;;2.05;1.77;;;;;;;24.15;29.10;101877.28;5305319;28;20079;-77
2022/05/03 07:47:47;;;;;;;2.30;1.80;;;;;;;24.65;26.57;101873.34;5304693;28;20108;-77
2022/05/03 07:50:18;;;;;;;6.25;1.80;;;;;;;24.97;26.11;101868.06;5307413;28;20020;-77
2022/05/03 07:52:50;;;;;;;4.40;2.20;;;;;;;25.35;26.12;101876.38;5307790;28;20047;-77
2022/05/03 07:55:21;;;;;;;2.00;1.80;;;;;;;25.79;25.91;101871.94;5305336;28;20114;-77
2022/05/03 07:57:52;;;;;;;15.32;2.60;;;;;;;25.93;26.05;101877.31;5304801;28;20314;-78
2022/05/03 08:00:24;;;;;;;3.90;1.93;;;;;;;26.08;25.28;101874.31;5305045;28;20075;-75
2022/05/03 08:02:55;;;;;;;2.58;2.38;;;;;;;26.38;24.41;101875.31;5305152;28;20263;-77
2022/05/03 08:05:27;;;;;;;4.18;2.28;;;;;;;27.19;25.03;101880.03;5305370;28;20070;-77
2022/05/03 08:07:58;;;;;;;3.10;2.67;;;;;;;27.22;24.27;101882.34;5303880;28;20031;-77
2022/05/03 08:10:30;;;;;;;6.03;2.90;;;;;;;27.63;24.05;101883.53;5306011;28;20020;-77
2022/05/03 08:13:01;;;;;;;9.73;2.97;;;;;;;28.28;23.40;101874.59;5304679;28;20454;-77
2022/05/03 08:15:32;;;;;;;21.65;3.30;;;;;;;28.30;23.57;101877.94;5305799;28;20021;-77
2022/05/03 08:18:04;;;;;;;3.63;2.30;;;;;;;28.25;23.96;101878.63;5304473;28;20020;-76
2022/05/03 08:20:35;;;;;;;5.63;2.10;;;;;;;29.52;22.69;101884.53;5303936;28;20024;-77
2022/05/03 08:23:07;;;;;;;3.10;2.30;;;;;;;29.50;21.84;101888.59;5304760;28;20017;-77
2022/05/03 08:25:39;;;;;;;3.13;2.80;;;;;;;28.14;22.29;101884.94;5304690;28;20123;-76
2022/05/03 08:28:11;;;;;;;2.88;2.40;;;;;;;29.27;22.13;101884.84;5302750;28;20166;-77
2022/05/03 08:30:42;;;;;;;3.23;2.47;;;;;;;30.34;21.37;101879.69;5293117;28;40083;-77
2022/05/03 08:33:14;;;;;;;4.90;3.07;;;;;;;30.58;21.37;101887.81;5282001;28;20275;-76
2022/05/03 08:35:45;;;;;;;3.65;2.70;;;;;;;30.70;21.30;101886.63;5284000;28;20289;-77
2022/05/03 08:43:58;;;;;;;6.13;3.33;;;;;;;32.62;19.77;101887.69;5304431;28;20037;-79
2022/05/03 08:46:31;;;;;;;6.28;3.50;;;;;;;31.30;20.77;101878.66;5304549;28;20020;-78
2022/05/03 08:49:04;;;;;;;4.85;3.30;;;;;;;31.90;20.31;101879.59;5303388;28;20021;-78
2022/05/03 08:51:37;;;;;;;9.05;3.92;;;;;;;31.95;20.30;101879.63;5303151;28;20047;-77
2022/05/03 08:54:09;;;;;;;4.35;3.95;;;;;;;32.14;20.17;101885.66;5302441;28;20042;-77
2022/05/03 08:56:41;;;;;;;3.80;3.50;;;;;;;32.03;20.43;101892.97;5304489;28;20032;-77
2022/05/03 08:59:13;;;;;;;5.90;3.80;;;;;;;32.75;20.67;101881.69;5303796;28;20023;-77
2022/05/03 09:01:45;;;;;;;4.10;3.80;;;;;;;32.39;19.72;101879.47;5304017;28;20028;-77
2022/05/03 09:04:16;;;;;;;4.38;3.90;;;;;;;32.82;19.67;101882.31;5303704;28;20040;-77
2022/05/03 09:06:50;;;;;;;3.90;3.50;;;;;;;33.40;19.66;101884.22;5304293;28;20025;-76
2022/05/03 09:09:22;;;;;;;3.92;3.58;;;;;;;33.21;19.61;101884.72;5304177;28;20111;-78
2022/05/03 09:11:53;;;;;;;4.15;3.75;;;;;;;34.63;18.15;101881.59;5303381;28;20104;-77
2022/05/03 09:14:35;;;;;;;5.13;4.10;;;;;;;35.26;19.58;101885.84;5303635;28;21831;-78
2022/05/03 09:17:07;;;;;;;4.00;3.60;;;;;;;34.58;19.09;101867.75;5303266;28;20312;-77
2022/05/03 09:19:38;;;;;;;8.10;4.23;;;;;;;35.14;18.72;101886.19;5298487;28;20051;-77
2022/05/03 09:25:12;;;;;;;4.47;4.03;;;;;;;36.17;18.65;101886.41;5296338;28;20243;-78
2022/05/03 09:27:44;;;;;;;;;;;;;;;39.22;18.80;101888.09;5303990;28;20413;-77
2022/05/03 09:30:15;;;;;;;5.13;3.90;;;;;;;36.50;18.49;101875.56;5303522;28;19916;-78
2022/05/03 09:32:52;;;;;;;6.93;3.70;;;;;;;36.10;17.87;101877.56;5303334;28;20382;-78
2022/05/03 09:35:35;;;;;;;8.32;3.63;;;;;;;36.30;18.35;101879.38;5303741;28;20528;-78
2022/05/03 09:38:07;;;;;;;6.22;4.15;;;;;;;35.02;19.29;101887.31;5302189;28;20051;-78
2022/05/03 09:40:43;;;;;;;4.10;3.80;;;;;;;34.97;19.19;101883.75;5304188;28;20393;-77
2022/05/03 09:43:16;;;;;;;3.95;3.35;;;;;;;35.51;18.95;101880.19;5302961;28;20028;-78
2022/05/03 09:46:03;;;;;;;4.65;3.70;;;;;;;36.16;18.94;101877.22;5303306;28;20036;-78
2022/05/03 09:48:51;;;;;;;4.68;3.83;;;;;;;36.56;18.79;101874.41;5302939;28;20131;-77
2022/05/03 09:51:23;;;;;;;4.82;3.78;;;;;;;36.06;18.42;101869.00;5300108;28;20095;-77
2022/05/03 09:53:59;;;;;;;9.27;4.72;;;;;;;34.55;19.56;101871.09;5281107;28;20500;-78
2022/05/03 09:56:33;;;;;;;5.75;3.58;;;;;;;35.88;18.84;101870.53;5281608;28;20048;-77
2022/05/03 09:59:08;;;;;;;17.50;4.63;;;;;;;36.33;18.73;101876.03;5292858;28;20115;-78
2022/05/03 10:01:40;;;;;;;4.55;3.90;;;;;;;37.39;17.26;101860.34;5302680;28;20036;-77
2022/05/03 10:04:13;;;;;;;5.32;4.15;;;;;;;36.63;17.71;101872.09;5303013;28;20025;-77
2022/05/03 10:06:44;;;;;;;13.30;4.90;;;;;;;36.76;17.85;101872.53;5303532;28;20062;-77
2022/05/03 10:09:15;;;;;;;11.33;4.00;;;;;;;37.60;17.26;101858.91;5303487;28;20063;-78
2022/05/03 10:11:49;;;;;;;14.40;4.50;;;;;;;37.34;17.53;101864.03;5303165;28;20294;-78
2022/05/03 10:14:20;;;;;;;7.90;4.28;;;;;;;37.33;17.35;101858.78;5302795;28;20526;-78
2022/05/03 10:22:52;;;;;;;20.57;4.67;;;;;;;36.65;17.81;101860.69;5305346;28;20210;-76
2022/05/03 10:25:41;;;;;;;9.98;4.68;;;;;;;37.49;18.14;101862.19;5308816;28;20230;-76
2022/05/03 10:28:13;;;;;;;4.70;2.80;;;;;;;36.34;17.72;101856.28;5308885;28;20402;-77
2022/05/03 10:31:05;;;;;;;9.85;3.92;;;;;;;38.09;18.03;101855.94;5310038;28;20077;-77
2022/05/03 10:33:38;;;;;;;5.65;4.22;;;;;;;37.43;17.36;101844.72;5309417;28;20086;-77
2022/05/03 10:36:42;;;;;;;11.75;4.90;;;;;;;39.28;17.48;101846.97;5309190;28;20027;-77
2022/05/03 10:39:21;;;;;;;6.30;3.90;;;;;;;39.59;17.02;101844.31;5285404;28;20040;-77
2022/05/03 10:42:02;;;;;;;20.83;4.18;;;;;;;39.83;17.00;101840.38;5295123;28;20073;-77
2022/05/03 10:44:52;;;;;;;3.80;3.50;;;;;;;40.22;16.02;101834.06;5288482;28;20029;-77
2022/05/03 10:47:53;;;;;;;4.70;3.47;;;;;;;37.19;17.61;101834.50;5287990;28;20021;-77
2022/05/03 10:50:29;;;;;;;4.30;3.38;;;;;;;35.29;19.49;101836.22;5288204;28;20025;-77
2022/05/03 10:53:05;;;;;;;7.07;3.95;;;;;;;37.79;17.62;101825.53;5296524;28;20032;-77
2022/05/03 10:55:56;;;;;;;7.45;4.18;;;;;;;36.44;18.22;101824.78;5309519;28;20037;-77
2022/05/03 10:58:33;;;;;;;4.20;3.80;;;;;;;35.59;18.94;101839.91;5307287;28;20028;-77
2022/05/03 11:01:06;;;;;;;7.43;4.28;;;;;;;32.89;20.84;101835.06;5290836;28;20484;-77
2022/05/03 11:04:00;;;;;;;9.93;4.32;;;;;;;32.53;22.05;101821.06;5308961;28;20031;-77
2022/05/03 11:06:38;;;;;;;5.03;4.00;;;;;;;34.25;21.08;101826.53;5308570;28;20119;-77
2022/05/03 11:09:10;;;;;;;4.28;3.78;;;;;;;35.34;19.04;101827.03;5309142;28;20458;-77
2022/05/03 11:11:44;;;;;;;3.90;3.25;;;;;;;37.79;17.27;101819.97;5307932;28;20037;-77
2022/05/03 11:14:19;;;;;;;4.70;3.30;;;;;;;39.64;16.41;101816.28;5309280;28;20028;-77
2022/05/03 11:17:05;;;;;;;9.75;3.78;;;;;;;39.73;16.12;101815.50;5307239;28;20086;-77
2022/05/03 11:19:49;;;;;;;4.38;3.30;;;;;;;40.03;15.87;101811.94;5302256;28;20017;-77
2022/05/03 11:22:29;;;;;;;3.78;3.40;;;;;;;40.35;15.67;101818.34;5306804;28;20056;-78
2022/05/03 11:25:12;;;;;;;5.60;4.00;;;;;;;38.06;17.28;101806.44;5309065;28;20020;-76
2022/05/03 11:27:44;;;;;;;7.68;3.88;;;;;;;36.53;18.26;101805.53;5308355;28;20041;-76
2022/05/03 11:30:17;;;;;;;4.15;3.63;;;;;;;36.77;18.21;101800.00;5308779;28;20381;-76
2022/05/03 11:32:56;;;;;;;4.78;3.50;;;;;;;35.42;19.41;101797.88;5289692;28;20036;-76
2022/05/03 11:35:29;;;;;;;5.13;3.50;;;;;;;36.28;18.92;101796.34;5305914;28;20020;-76
2022/05/03 11:38:02;;;;;;;8.48;3.55;;;;;;;37.95;17.96;101792.69;5305200;28;20024;-76
2022/05/03 11:40:35;;;;;;;4.28;3.83;;;;;;;36.24;18.12;101788.91;5305200;28;20482;-77
2022/05/03 11:43:12;;;;;;;5.53;4.22;;;;;;;35.18;19.48;101791.03;5305344;28;20102;-76
2022/05/03 11:45:44;;;;;;;4.88;3.30;;;;;;;33.57;20.50;101782.50;5304440;28;20513;-76
2022/05/03 11:48:16;;;;;;;4.50;4.10;;;;;;;32.17;22.31;101782.16;5320942;28;20393;-77
2022/05/03 11:56:27;;;;;;;5.85;5.15;;;;;;;27.58;27.34;101782.00;5296416;28;20040;-76
2022/05/03 11:58:59;;;;;;;20.08;6.13;;;;;;;27.27;27.61;101773.78;5304905;28;20142;-76
2022/05/03 12:01:34;;;;;;;5.28;4.13;;;;;;;26.33;29.07;101764.94;5305301;28;20023;-76
2022/05/03 12:04:08;;;;;;;4.83;3.80;;;;;;;27.86;27.72;101768.50;5304826;28;20024;-77
2022/05/03 12:06:44;;;;;;;15.60;4.78;;;;;;;29.47;25.74;101765.44;5305036;28;20223;-77
2022/05/03 12:09:19;;;;;;;13.20;4.07;;;;;;;28.38;26.24;101770.56;5304668;28;20025;-77
2022/05/03 12:14:46;;;;;;;14.40;3.58;;;;;;;27.14;27.88;101758.34;5304911;28;20036;-76
2022/05/03 12:17:18;;;;;;;3.25;2.90;;;;;;;25.71;29.03;101753.88;5304719;28;20074;-76
2022/05/03 12:20:00;;;;;;;11.68;3.33;;;;;;;26.48;29.28;101765.44;5305151;28;20103;-76
2022/05/03 12:22:32;;;;;;;12.43;4.13;;;;;;;26.06;30.00;101759.72;5282227;28;20021;-76
2022/05/03 12:25:04;;;;;;;11.98;3.70;;;;;;;27.10;29.97;101759.03;5297253;28;20458;-76
2022/05/03 12:27:35;;;;;;;5.63;4.18;;;;;;;25.94;31.20;101753.31;5304350;28;20043;-77
2022/05/03 12:30:10;;;;;;;8.65;4.60;;;;;;;26.13;31.41;101751.47;5319903;28;20074;-77
2022/05/03 12:32:41;;;;;;;12.32;5.30;;;;;;;26.05;31.46;101741.63;5304279;28;20037;-77
2022/05/03 12:35:14;;;;;;;9.10;5.40;;;;;;;25.78;32.24;101744.56;5304899;28;20028;-77
2022/05/03 12:37:51;;;;;;;20.38;6.22;;;;;;;26.25;32.73;101749.69;5286583;28;20047;-77
2022/05/03 12:40:27;;;;;;;20.92;5.90;;;;;;;25.22;33.45;101745.34;5304630;28;20074;-77
2022/05/03 12:43:09;;;;;;;8.65;4.95;;;;;;;26.26;32.48;101742.31;5282308;28;20029;-77